createdAt,value
2022-08-31T00:00:36.999Z,620.17
2022-08-31T00:03:03.463Z,635.33
2022-08-31T00:05:30.132Z,628.83
2022-08-31T00:07:56.579Z,620.83
2022-08-31T00:10:32.011Z,628.23
2022-08-31T00:12:59.458Z,620.60
2022-08-31T00:15:25.896Z,616.60
2022-08-31T00:17:52.337Z,618.17
2022-08-31T00:20:32.502Z,629.83
2022-08-31T00:23:00.524Z,618.83
2022-08-31T00:25:26.969Z,620.00
2022-08-31T00:27:53.436Z,628.80
2022-08-31T00:30:19.894Z,619.97
2022-08-31T00:32:46.360Z,629.80
2022-08-31T00:35:14.408Z,618.27
2022-08-31T00:37:40.825Z,621.43
2022-08-31T00:40:07.368Z,630.37
2022-08-31T00:42:33.854Z,629.60
2022-08-31T00:45:00.304Z,631.57
2022-08-31T00:47:26.742Z,640.53
2022-08-31T00:49:53.256Z,621.73
2022-08-31T00:52:19.710Z,634.40
2022-08-31T00:54:46.164Z,635.17
2022-08-31T00:57:12.635Z,631.10
2022-08-31T00:59:39.133Z,624.83
2022-08-31T01:02:05.630Z,634.77
2022-08-31T01:04:32.118Z,631.37
2022-08-31T01:06:58.562Z,636.43
2022-08-31T01:09:25.021Z,621.70
2022-08-31T01:11:51.541Z,634.73
2022-08-31T01:14:18.054Z,637.57
2022-08-31T01:16:44.585Z,622.10
2022-08-31T01:19:11.101Z,628.30
2022-08-31T01:21:37.567Z,622.47
2022-08-31T01:24:04.029Z,617.13
2022-08-31T01:26:30.501Z,639.13
2022-08-31T01:28:56.975Z,628.17
2022-08-31T01:31:23.475Z,629.20
2022-08-31T01:33:49.985Z,627.30
2022-08-31T01:36:16.486Z,616.47
2022-08-31T01:38:42.969Z,632.33
2022-08-31T01:41:09.423Z,625.40
2022-08-31T01:43:39.492Z,622.63
2022-08-31T01:46:06.251Z,640.70
2022-08-31T01:48:35.523Z,634.33
2022-08-31T01:51:07.898Z,623.40
2022-08-31T01:53:37.285Z,624.20
2022-08-31T01:56:07.248Z,626.83
2022-08-31T01:58:33.809Z,622.90
2022-08-31T02:01:00.282Z,620.93
2022-08-31T02:03:27.795Z,620.83
2022-08-31T02:08:22.392Z,635.57
2022-08-31T02:10:48.831Z,636.63
2022-08-31T02:13:15.357Z,632.20
2022-08-31T02:15:41.802Z,635.17
2022-08-31T02:18:08.262Z,628.50
2022-08-31T02:20:34.707Z,635.30
2022-08-31T02:23:01.163Z,625.13
2022-08-31T02:25:27.611Z,627.00
2022-08-31T02:27:54.043Z,632.87
2022-08-31T02:30:20.553Z,627.97
2022-08-31T02:32:46.979Z,627.20
2022-08-31T02:35:13.437Z,653.90
2022-08-31T02:37:39.911Z,685.70
2022-08-31T02:40:07.617Z,716.80
2022-08-31T02:42:53.366Z,727.73
2022-08-31T02:45:20.509Z,717.50
2022-08-31T02:47:46.940Z,742.40
2022-08-31T02:50:13.411Z,744.27
2022-08-31T02:52:39.843Z,740.30
2022-08-31T02:55:06.307Z,736.40
2022-08-31T02:57:32.741Z,714.57
2022-08-31T02:59:59.212Z,685.70
2022-08-31T03:02:31.799Z,676.33
2022-08-31T03:04:58.841Z,692.43
2022-08-31T03:07:25.286Z,697.43
2022-08-31T03:09:51.743Z,699.97
2022-08-31T03:12:18.186Z,727.80
2022-08-31T03:14:45.867Z,744.47
2022-08-31T03:17:12.326Z,737.90
2022-08-31T03:19:38.796Z,739.03
2022-08-31T03:22:05.258Z,739.50
2022-08-31T03:24:31.734Z,736.17
2022-08-31T03:26:58.199Z,734.23
2022-08-31T03:29:24.656Z,734.50
2022-08-31T03:31:51.106Z,736.47
2022-08-31T03:34:17.632Z,736.13
2022-08-31T03:36:44.106Z,732.43
2022-08-31T03:39:10.583Z,742.73
2022-08-31T03:41:37.088Z,739.80
2022-08-31T03:44:03.761Z,732.50
2022-08-31T03:46:30.242Z,730.87
2022-08-31T03:48:56.801Z,735.13
2022-08-31T03:51:23.295Z,738.60
2022-08-31T03:53:49.766Z,737.53
2022-08-31T03:56:16.202Z,730.87
2022-08-31T03:58:42.649Z,740.03
2022-08-31T04:01:09.135Z,732.47
2022-08-31T04:03:35.625Z,737.10
2022-08-31T04:06:02.092Z,735.93
2022-08-31T04:08:28.548Z,732.73
2022-08-31T04:10:55.009Z,739.47
2022-08-31T04:13:21.468Z,742.93
2022-08-31T04:15:48.021Z,739.40
2022-08-31T04:18:14.485Z,733.87
2022-08-31T04:20:40.957Z,732.97
2022-08-31T04:23:07.489Z,732.30
2022-08-31T04:25:34.019Z,737.33
2022-08-31T04:28:00.518Z,733.50
2022-08-31T04:30:30.276Z,742.13
2022-08-31T04:32:56.762Z,736.60
2022-08-31T04:35:25.623Z,737.27
2022-08-31T04:37:52.122Z,733.33
2022-08-31T04:40:19.076Z,739.70
2022-08-31T04:42:45.650Z,733.43
2022-08-31T04:45:12.213Z,735.10
2022-08-31T04:47:38.703Z,740.77
2022-08-31T04:50:05.211Z,743.53
2022-08-31T04:52:31.647Z,734.90
2022-08-31T04:54:58.102Z,743.83
2022-08-31T04:57:24.597Z,745.13
2022-08-31T04:59:51.034Z,738.73
2022-08-31T05:02:17.518Z,734.33
2022-08-31T05:04:44.016Z,741.67
2022-08-31T05:07:10.496Z,736.20
2022-08-31T05:09:37.102Z,756.53
2022-08-31T05:12:03.781Z,733.67
2022-08-31T05:14:30.231Z,741.70
2022-08-31T05:16:56.670Z,734.80
2022-08-31T05:19:23.169Z,739.53
2022-08-31T05:21:49.989Z,744.87
2022-08-31T05:24:16.507Z,731.80
2022-08-31T05:26:43.562Z,744.17
2022-08-31T05:29:10.066Z,742.50
2022-08-31T05:31:36.697Z,739.77
2022-08-31T05:34:03.154Z,739.20
2022-08-31T05:36:29.631Z,738.40
2022-08-31T05:39:00.765Z,739.33
2022-08-31T05:41:27.668Z,743.97
2022-08-31T05:43:54.120Z,748.33
2022-08-31T05:46:20.730Z,741.23
2022-08-31T05:48:49.533Z,747.20
2022-08-31T05:51:17.038Z,743.53
2022-08-31T05:53:43.552Z,750.27
2022-08-31T05:56:10.072Z,745.17
2022-08-31T05:58:36.557Z,743.07
2022-08-31T06:01:03.039Z,744.93
2022-08-31T06:03:29.484Z,750.50
2022-08-31T06:05:55.970Z,750.33
2022-08-31T06:08:27.422Z,742.70
2022-08-31T06:10:54.195Z,750.63
2022-08-31T06:13:20.740Z,746.33
2022-08-31T06:15:47.323Z,751.93
2022-08-31T10:03:15.137Z,661.60
2022-08-31T10:05:41.602Z,666.40
2022-08-31T10:08:08.058Z,666.60
2022-08-31T10:10:34.528Z,667.77
2022-08-31T10:13:00.979Z,665.03
2022-08-31T10:15:27.464Z,667.80
2022-08-31T10:17:53.918Z,662.13
2022-08-31T10:20:20.398Z,668.93
2022-08-31T10:22:46.835Z,666.33
2022-08-31T10:25:13.284Z,666.07
2022-08-31T10:30:20.137Z,673.70
2022-08-31T10:32:46.672Z,659.47
2022-08-31T10:35:13.128Z,669.97
2022-08-31T10:37:39.593Z,668.20
2022-08-31T10:40:06.178Z,667.27
2022-08-31T10:42:32.712Z,673.60
2022-08-31T10:44:59.235Z,663.87
2022-08-31T10:47:33.877Z,673.93
2022-08-31T10:50:00.900Z,665.63
2022-08-31T10:52:27.343Z,665.47
2022-08-31T10:54:53.791Z,659.70
2022-08-31T10:57:22.127Z,663.90
2022-08-31T10:59:54.081Z,669.10
2022-08-31T11:02:22.381Z,669.47
2022-08-31T11:04:48.898Z,665.50
2022-08-31T11:10:05.589Z,665.93
2022-08-31T11:12:32.017Z,669.77
2022-08-31T11:14:58.467Z,661.63
2022-08-31T11:17:24.939Z,668.77
2022-08-31T11:19:52.602Z,661.30
2022-08-31T11:22:19.055Z,671.53
2022-08-31T11:24:45.554Z,664.00
2022-08-31T11:27:12.013Z,672.17
2022-08-31T11:29:38.493Z,668.50
2022-08-31T11:32:04.957Z,672.83
2022-08-31T11:34:31.387Z,673.73
2022-08-31T11:36:57.848Z,668.60
2022-08-31T11:39:24.315Z,662.17
2022-08-31T11:41:50.779Z,663.30
2022-08-31T11:44:17.218Z,662.60
2022-08-31T11:46:43.896Z,666.13
2022-08-31T11:49:10.406Z,669.17
2022-08-31T11:51:41.003Z,661.47
2022-08-31T11:54:07.907Z,663.33
2022-08-31T11:56:34.350Z,668.77
2022-08-31T11:59:00.798Z,663.87
2022-08-31T12:01:27.285Z,666.37
2022-08-31T12:03:53.747Z,666.60
2022-08-31T12:06:20.250Z,668.63
2022-08-31T12:08:46.721Z,692.93
2022-08-31T12:11:13.205Z,700.03
2022-08-31T12:13:39.672Z,704.50
2022-08-31T12:16:06.173Z,708.60
2022-08-31T12:18:32.625Z,721.30
2022-08-31T12:21:01.325Z,720.43
2022-08-31T12:23:30.173Z,735.30
2022-08-31T12:25:58.116Z,713.00
2022-08-31T12:28:29.326Z,723.70
2022-08-31T12:30:56.115Z,728.10
2022-08-31T12:33:22.665Z,735.60
2022-08-31T12:35:49.110Z,734.37
2022-08-31T12:38:15.556Z,735.03
2022-08-31T12:40:42.104Z,735.70
2022-08-31T12:43:08.609Z,725.10
2022-08-31T12:45:35.074Z,714.53
